createdAt,value
2022-08-20T00:00:22.419Z,101398.41
2022-08-20T00:02:50.983Z,101401.13
2022-08-20T00:05:21.376Z,101390.38
2022-08-20T00:07:47.736Z,101394.81
2022-08-20T00:10:14.575Z,101394.81
2022-08-20T00:12:44.642Z,101400.47
2022-08-20T00:15:12.944Z,101388.63
2022-08-20T00:17:39.831Z,101389.50
2022-08-20T00:20:08.783Z,101384.41
2022-08-20T00:22:35.365Z,101388.00
2022-08-20T00:25:01.981Z,101390.72
2022-08-20T00:27:28.325Z,101394.47
2022-08-20T00:29:54.709Z,101400.47
2022-08-20T00:32:21.102Z,101403.41
2022-08-20T00:34:47.666Z,101388.16
2022-08-20T00:37:14.175Z,101393.47
2022-08-20T00:39:41.132Z,101395.38
2022-08-20T00:42:07.585Z,101397.06
2022-08-20T00:44:34.167Z,101398.97
2022-08-20T00:47:00.647Z,101395.16
2022-08-20T00:49:28.371Z,101385.41
2022-08-20T00:51:57.722Z,101392.78
2022-08-20T00:54:50.522Z,101392.44
2022-08-20T00:57:17.290Z,101395.16
2022-08-20T00:59:44.003Z,101390.03
2022-08-20T01:02:12.855Z,101390.25
2022-08-20T01:04:39.235Z,101383.34
2022-08-20T01:07:06.396Z,101385.25
2022-08-20T01:09:57.931Z,101391.38
2022-08-20T01:12:20.709Z,101393.81
2022-08-20T01:14:47.472Z,101394.88
2022-08-20T01:17:20.156Z,101395.03
2022-08-20T01:19:58.314Z,101392.13
2022-08-20T01:22:49.006Z,101397.78
2022-08-20T01:25:21.888Z,101401.56
2022-08-20T01:27:53.241Z,101402.41
2022-08-20T01:30:22.475Z,101402.41
2022-08-20T01:32:48.852Z,101408.25
2022-08-20T01:35:19.910Z,101403.81
2022-08-20T01:37:46.283Z,101402.78
2022-08-20T01:40:14.170Z,101391.59
2022-08-20T01:42:58.660Z,101391.44
2022-08-20T01:45:27.954Z,101380.47
2022-08-20T01:47:56.107Z,101377.53
2022-08-20T01:50:25.932Z,101380.47
2022-08-20T01:52:57.228Z,101389.38
2022-08-20T01:55:24.032Z,101387.31
2022-08-20T01:57:50.646Z,101393.63
2022-08-20T02:00:20.066Z,101390.88
2022-08-20T02:02:49.123Z,101391.56
2022-08-20T02:05:15.535Z,101397.56
2022-08-20T02:07:41.961Z,101391.03
2022-08-20T02:10:10.852Z,101395.50
2022-08-20T02:12:37.374Z,101392.06
2022-08-20T02:15:05.142Z,101388.28
2022-08-20T02:17:31.470Z,101386.38
2022-08-20T02:20:00.354Z,101391.03
2022-08-20T02:22:35.917Z,101390.38
2022-08-20T02:25:05.352Z,101398.41
2022-08-20T02:27:31.883Z,101392.44
2022-08-20T02:30:03.002Z,101389.88
2022-08-20T02:32:33.986Z,101392.63
2022-08-20T02:35:03.619Z,101393.81
2022-08-20T02:37:30.523Z,101396.56
2022-08-20T02:39:57.157Z,101397.41
2022-08-20T02:42:23.806Z,101402.53
2022-08-20T02:44:50.178Z,101392.78
2022-08-20T02:47:17.175Z,101392.78
2022-08-20T02:49:43.615Z,101391.75
2022-08-20T02:52:09.971Z,101395.53
2022-08-20T02:54:36.347Z,101397.06
2022-08-20T02:57:04.097Z,101396.22
2022-08-20T02:59:30.485Z,101396.56
2022-08-20T03:01:59.733Z,101399.97
2022-08-20T03:04:28.060Z,101391.75
2022-08-20T03:06:54.422Z,101394.69
2022-08-20T03:09:20.783Z,101389.38
2022-08-20T03:11:47.136Z,101389.88
2022-08-20T03:14:13.463Z,101397.06
2022-08-20T03:16:39.927Z,101390.72
2022-08-20T03:19:06.279Z,101390.03
2022-08-20T03:21:32.649Z,101394.00
2022-08-20T03:23:59.099Z,101386.81
2022-08-20T03:26:25.481Z,101389.56
2022-08-20T03:28:51.874Z,101393.63
2022-08-20T03:31:18.368Z,101396.56
2022-08-20T03:33:52.737Z,101403.09
2022-08-20T03:36:22.133Z,101402.41
2022-08-20T03:38:59.795Z,101411.31
2022-08-20T03:41:26.398Z,101392.28
2022-08-20T03:43:52.802Z,101391.44
2022-08-20T03:46:22.110Z,101391.09
2022-08-20T03:48:50.163Z,101391.25
2022-08-20T03:51:23.069Z,101388.50
2022-08-20T03:53:49.416Z,101391.44
2022-08-20T03:56:17.291Z,101398.63
2022-08-20T03:58:43.659Z,101394.19
2022-08-20T04:01:44.202Z,101402.41
2022-08-20T04:03:58.555Z,101408.75
2022-08-20T04:06:25.298Z,101399.84
2022-08-20T04:08:54.042Z,101408.25
2022-08-20T04:11:20.441Z,101407.03
2022-08-20T04:13:46.844Z,101408.94
2022-08-20T04:16:15.668Z,101419.72
2022-08-20T04:18:43.411Z,101421.59
2022-08-20T04:21:32.534Z,101417.81
2022-08-20T04:24:00.418Z,101419.72
2022-08-20T04:26:26.821Z,101418.19
2022-08-20T04:28:55.332Z,101421.13
2022-08-20T04:31:25.403Z,101416.47
2022-08-20T04:33:52.028Z,101420.91
2022-08-20T04:36:18.409Z,101421.78
2022-08-20T04:38:48.446Z,101432.56
2022-08-20T04:41:21.122Z,101431.22
2022-08-20T04:43:50.814Z,101430.19
2022-08-20T04:46:17.202Z,101433.97
2022-08-20T04:48:48.850Z,101440.47
2022-08-20T04:51:15.666Z,101441.50
2022-08-20T04:53:43.002Z,101442.84
2022-08-20T04:56:09.708Z,101449.72
2022-08-20T04:58:37.980Z,101452.63
2022-08-20T05:01:09.107Z,101461.69
2022-08-20T05:03:37.557Z,101464.63
2022-08-20T05:06:04.614Z,101463.94
2022-08-20T05:08:31.097Z,101460.16
2022-08-20T05:11:06.755Z,101459.31
2022-08-20T05:13:44.154Z,101459.31
2022-08-20T05:16:10.547Z,101468.22
2022-08-20T05:18:37.100Z,101459.31
2022-08-20T05:21:06.931Z,101472.16
2022-08-20T05:23:34.985Z,101465.16
2022-08-20T05:26:05.362Z,101459.84
2022-08-20T05:28:32.679Z,101467.03
2022-08-20T05:31:04.478Z,101467.88
2022-08-20T05:33:30.976Z,101468.94
2022-08-20T05:35:57.716Z,101482.78
2022-08-20T05:38:26.302Z,101476.59
2022-08-20T05:40:53.131Z,101469.44
2022-08-20T05:43:20.362Z,101470.81
2022-08-20T05:45:47.606Z,101468.94
2022-08-20T05:48:16.595Z,101470.31
2022-08-20T05:50:43.844Z,101475.81
2022-08-20T05:53:10.250Z,101484.38
2022-08-20T05:55:39.389Z,101482.66
2022-08-20T05:58:07.298Z,101483.50
2022-08-20T06:00:34.509Z,101476.47
2022-08-20T06:03:19.829Z,101485.25
2022-08-20T06:05:46.424Z,101485.75
2022-08-20T06:08:13.089Z,101484.38
2022-08-20T06:10:40.343Z,101487.13
2022-08-20T06:13:10.120Z,101485.06
2022-08-20T06:15:40.460Z,101474.13
2022-08-20T06:18:27.472Z,101490.72
2022-08-20T06:20:55.282Z,101492.63
2022-08-20T06:23:23.158Z,101490.19
2022-08-20T06:25:50.370Z,101493.47
2022-08-20T06:28:17.191Z,101492.09
2022-08-20T06:30:43.575Z,101499.47
2022-08-20T06:33:10.009Z,101497.38
2022-08-20T06:35:37.874Z,101492.25
2022-08-20T06:38:05.815Z,101505.78
2022-08-20T06:40:34.280Z,101502.84
2022-08-20T06:43:00.928Z,101500.84
2022-08-20T06:45:28.716Z,101503.38
2022-08-20T06:47:57.877Z,101502.84
2022-08-20T06:50:26.964Z,101496.03
2022-08-20T06:52:53.672Z,101507.16
2022-08-20T06:55:21.158Z,101497.38
2022-08-20T06:57:48.331Z,101496.19
2022-08-20T07:00:16.958Z,101493.47
2022-08-20T07:02:43.336Z,101500.84
2022-08-20T07:05:10.514Z,101496.38
2022-08-20T07:07:37.478Z,101503.59
2022-08-20T07:10:08.190Z,101504.44
2022-08-20T07:12:37.346Z,101504.59
2022-08-20T07:15:08.399Z,101508.88
2022-08-20T07:17:34.950Z,101508.34
2022-08-20T07:20:05.349Z,101509.22
2022-08-20T07:22:31.755Z,101510.25
2022-08-20T07:24:58.110Z,101508.50
2022-08-20T07:27:24.955Z,101514.84
2022-08-20T07:30:12.917Z,101514.84
2022-08-20T07:32:41.759Z,101517.44
2022-08-20T07:35:14.390Z,101518.28
2022-08-20T07:37:42.629Z,101527.56
2022-08-20T07:40:12.307Z,101525.13
2022-08-20T07:42:39.309Z,101538.47
2022-08-20T07:45:10.707Z,101525.59
2022-08-20T07:47:37.666Z,101527.69
2022-08-20T07:50:04.173Z,101529.25
2022-08-20T07:52:30.518Z,101522.56
2022-08-20T07:54:56.920Z,101524.31
2022-08-20T07:57:23.337Z,101526.53
2022-08-20T07:59:50.064Z,101531.50
2022-08-20T08:02:16.386Z,101538.53
2022-08-20T08:04:42.764Z,101537.50
2022-08-20T08:07:10.480Z,101537.13
2022-08-20T08:09:37.151Z,101550.69
2022-08-20T08:12:03.750Z,101550.50
2022-08-20T08:14:33.211Z,101544.00
2022-08-20T08:17:02.522Z,101542.31
2022-08-20T08:19:33.739Z,101536.47
2022-08-20T08:22:00.167Z,101543.31
2022-08-20T08:24:28.476Z,101542.63
2022-08-20T08:26:55.090Z,101536.09
2022-08-20T08:29:21.435Z,101539.22
2022-08-20T08:31:47.877Z,101543.13
2022-08-20T08:34:14.223Z,101541.59
2022-08-20T08:36:40.718Z,101542.97
2022-08-20T08:39:07.252Z,101538.50
2022-08-20T08:41:41.306Z,101545.56
2022-08-20T08:44:12.914Z,101549.47
2022-08-20T08:46:41.818Z,101553.75
2022-08-20T08:49:10.304Z,101553.56
2022-08-20T08:51:40.478Z,101553.38
2022-08-20T08:54:07.935Z,101552.53
2022-08-20T08:56:35.250Z,101566.59
2022-08-20T08:59:06.071Z,101558.34
2022-08-20T09:01:55.499Z,101565.38
2022-08-20T09:04:22.090Z,101570.38
2022-08-20T09:06:53.511Z,101567.63
2022-08-20T09:09:22.745Z,101569.69
2022-08-20T09:11:52.974Z,101571.72
2022-08-20T09:14:19.680Z,101577.56
2022-08-20T09:16:52.242Z,101578.22
2022-08-20T09:19:20.048Z,101586.94
2022-08-20T09:21:46.455Z,101574.75
2022-08-20T09:24:12.927Z,101572.22
2022-08-20T09:26:39.395Z,101574.75
2022-08-20T09:29:05.758Z,101576.50
2022-08-20T09:31:32.743Z,101578.56
2022-08-20T09:33:59.507Z,101575.63
2022-08-20T09:36:31.902Z,101571.88
2022-08-20T09:38:59.121Z,101572.38
2022-08-20T09:41:25.517Z,101569.97
2022-08-20T09:43:51.883Z,101566.75
2022-08-20T09:46:18.240Z,101567.63
2022-08-20T09:48:44.613Z,101567.28
2022-08-20T09:51:10.998Z,101566.25
2022-08-20T09:53:37.388Z,101560.25
2022-08-20T09:56:03.899Z,101560.06
2022-08-20T09:58:34.905Z,101567.25
2022-08-20T10:01:03.338Z,101569.63
2022-08-20T10:03:29.758Z,101570.13
2022-08-20T10:05:56.137Z,101567.94
2022-08-20T10:08:22.805Z,101572.38
2022-08-20T10:10:49.189Z,101576.84
2022-08-20T10:13:15.705Z,101575.13
2022-08-20T10:15:42.927Z,101578.56
2022-08-20T10:18:10.373Z,101580.25
2022-08-20T10:20:38.788Z,101586.59
2022-08-20T10:23:05.242Z,101582.84
2022-08-20T10:25:31.661Z,101577.84
2022-08-20T10:27:59.028Z,101577.84
2022-08-20T10:30:25.727Z,101579.91
2022-08-20T10:32:52.099Z,101588.97
2022-08-20T10:35:18.691Z,101583.69
2022-08-20T10:37:45.537Z,101580.94
2022-08-20T10:40:13.786Z,101571.00
2022-08-20T10:42:42.653Z,101569.78
2022-08-20T10:45:10.317Z,101575.09
2022-08-20T10:47:36.687Z,101576.81
2022-08-20T10:50:05.572Z,101582.97
2022-08-20T10:52:31.976Z,101584.69
2022-08-20T10:54:58.299Z,101587.44
2022-08-20T10:57:26.494Z,101587.63
2022-08-20T10:59:54.099Z,101581.94
2022-08-20T11:02:21.259Z,101581.75
2022-08-20T11:04:48.579Z,101580.91
2022-08-20T11:07:50.443Z,101583.63
2022-08-20T11:10:15.721Z,101584.50
2022-08-20T11:12:46.114Z,101588.13
2022-08-20T11:15:13.403Z,101589.81
2022-08-20T11:17:40.974Z,101580.53
2022-08-20T11:20:07.955Z,101588.97
2022-08-20T11:22:34.462Z,101593.25
2022-08-20T11:25:00.963Z,101593.25
2022-08-20T11:27:29.160Z,101590.31
2022-08-20T11:29:55.609Z,101595.81
2022-08-20T11:32:22.380Z,101592.00
2022-08-20T11:34:48.819Z,101589.47
2022-08-20T11:37:16.591Z,101591.16
2022-08-20T11:39:43.667Z,101590.13
2022-08-20T11:42:10.293Z,101596.84
2022-08-20T11:44:36.917Z,101606.78
2022-08-20T11:47:04.102Z,101598.34
2022-08-20T11:49:31.672Z,101594.94
2022-08-20T11:51:58.045Z,101598.75
2022-08-20T11:54:24.488Z,101596.84
2022-08-20T11:56:50.902Z,101591.16
2022-08-20T11:59:17.296Z,101591.00
2022-08-20T12:01:49.931Z,101594.59
2022-08-20T12:04:29.704Z,101591.84
2022-08-20T12:07:07.456Z,101585.53
2022-08-20T12:09:33.804Z,101583.44
2022-08-20T12:12:00.148Z,101588.75
2022-08-20T12:14:26.903Z,101584.28
2022-08-20T12:16:55.727Z,101582.59
2022-08-20T12:19:22.074Z,101575.19
2022-08-20T12:21:48.452Z,101583.28
2022-08-20T12:24:14.853Z,101577.09
2022-08-20T12:26:41.254Z,101579.00
2022-08-20T12:29:07.573Z,101579.84
2022-08-20T12:31:33.943Z,101582.22
2022-08-20T12:34:00.275Z,101586.66
2022-08-20T12:36:26.731Z,101593.19
2022-08-20T12:38:53.154Z,101595.94
2022-08-20T12:41:19.513Z,101592.34
2022-08-20T12:43:45.903Z,101584.13
2022-08-20T12:46:12.223Z,101592.16
2022-08-20T12:48:38.588Z,101585.66
2022-08-20T12:51:04.934Z,101587.91
2022-08-20T12:53:31.323Z,101581.53
2022-08-20T12:55:57.705Z,101581.38
2022-08-20T12:58:24.635Z,101584.13
2022-08-20T13:00:51.459Z,101581.19
2022-08-20T13:03:18.469Z,101587.34
2022-08-20T13:05:45.175Z,101581.19
2022-08-20T13:08:12.243Z,101589.59
2022-08-20T13:10:44.191Z,101584.97
2022-08-20T13:13:15.543Z,101586.66
2022-08-20T13:15:46.428Z,101573.63
2022-08-20T13:18:12.787Z,101574.31
2022-08-20T13:20:39.159Z,101577.03
2022-08-20T13:23:05.714Z,101569.84
2022-08-20T13:25:32.881Z,101561.63
2022-08-20T13:28:00.536Z,101558.88
2022-08-20T13:30:26.983Z,101550.00
2022-08-20T13:32:53.515Z,101565.56
2022-08-20T13:35:20.083Z,101559.06
2022-08-20T13:37:47.783Z,101559.91
2022-08-20T13:40:14.295Z,101555.09
2022-08-20T13:42:40.761Z,101557.84
2022-08-20T13:45:07.644Z,101569.00
2022-08-20T13:47:35.742Z,101556.34
2022-08-20T13:50:05.371Z,101551.00
2022-08-20T13:52:32.299Z,101551.69
2022-08-20T13:54:58.962Z,101557.84
2022-08-20T13:57:25.535Z,101563.16
2022-08-20T13:59:53.280Z,101549.59
2022-08-20T14:02:20.161Z,101558.53
2022-08-20T14:04:47.271Z,101552.34
2022-08-20T14:07:20.880Z,101553.38
2022-08-20T14:09:50.153Z,101544.13
2022-08-20T14:12:16.891Z,101554.75
2022-08-20T14:14:43.555Z,101557.31
2022-08-20T14:17:20.374Z,101546.50
2022-08-20T14:19:47.639Z,101550.97
2022-08-20T14:22:14.146Z,101555.22
2022-08-20T14:24:40.489Z,101562.81
2022-08-20T14:27:07.603Z,101556.47
2022-08-20T14:29:38.859Z,101559.22
2022-08-20T14:32:05.804Z,101560.06
2022-08-20T14:34:32.838Z,101564.69
2022-08-20T14:37:17.531Z,101561.09
2022-08-20T14:39:45.456Z,101565.06
2022-08-20T14:42:12.858Z,101560.56
2022-08-20T14:44:39.483Z,101558.16
2022-08-20T14:47:16.354Z,101561.59
2022-08-20T14:49:43.664Z,101558.84
2022-08-20T14:52:10.524Z,101561.59
2022-08-20T14:54:37.004Z,101562.09
2022-08-20T14:57:03.847Z,101558.31
2022-08-20T14:59:30.574Z,101563.09
2022-08-20T15:01:57.013Z,101561.59
2022-08-20T15:04:23.486Z,101561.59
2022-08-20T15:06:52.367Z,101558.84
2022-08-20T15:09:21.095Z,101553.00
2022-08-20T15:11:47.447Z,101566.03
2022-08-20T15:14:13.839Z,101557.81
2022-08-20T15:16:44.877Z,101555.75
2022-08-20T15:19:11.263Z,101556.59
2022-08-20T15:21:45.549Z,101554.88
2022-08-20T15:24:15.802Z,101561.25
2022-08-20T15:26:46.227Z,101546.28
2022-08-20T15:29:12.822Z,101553.34
2022-08-20T15:31:49.557Z,101547.00
2022-08-20T15:34:17.804Z,101548.69
2022-08-20T15:36:44.643Z,101555.91
2022-08-20T15:39:11.007Z,101542.38
2022-08-20T15:41:37.355Z,101547.84
2022-08-20T15:44:03.850Z,101545.78
2022-08-20T15:46:33.582Z,101545.09
2022-08-20T15:49:04.489Z,101551.28
2022-08-20T15:51:37.925Z,101548.19
2022-08-20T15:54:07.558Z,101545.44
2022-08-20T15:56:39.793Z,101552.97
2022-08-20T15:59:11.614Z,101552.97
2022-08-20T16:01:56.214Z,101547.97
2022-08-20T16:04:25.528Z,101549.88
2022-08-20T16:06:55.788Z,101550.94
2022-08-20T16:09:32.391Z,101553.66
2022-08-20T16:12:19.332Z,101559.50
2022-08-20T16:14:48.618Z,101556.78
2022-08-20T16:17:16.924Z,101564.81
2022-08-20T16:19:58.053Z,101560.16
2022-08-20T16:22:26.829Z,101558.28
2022-08-20T16:24:53.214Z,101559.31
2022-08-20T16:27:38.393Z,101561.22
2022-08-20T16:30:09.036Z,101565.84
2022-08-20T16:32:41.039Z,101569.44
2022-08-20T16:35:26.352Z,101574.09
2022-08-20T16:38:14.763Z,101580.63
2022-08-20T16:41:02.050Z,101568.59
2022-08-20T16:43:33.347Z,101580.44
2022-08-20T16:46:02.498Z,101569.44
2022-08-20T16:48:32.328Z,101579.38
2022-08-20T16:51:03.434Z,101574.09
2022-08-20T16:53:30.006Z,101576.63
2022-08-20T16:55:56.546Z,101578.38
2022-08-20T16:58:22.906Z,101575.78
2022-08-20T17:01:03.425Z,101575.63
2022-08-20T17:03:31.447Z,101581.13
2022-08-20T17:06:26.541Z,101577.31
2022-08-20T17:08:53.097Z,101581.78
2022-08-20T17:11:26.721Z,101580.72
2022-08-20T17:14:02.743Z,101581.13
2022-08-20T17:16:33.182Z,101588.31
2022-08-20T17:19:07.295Z,101587.25
2022-08-20T17:21:35.549Z,101583.47
2022-08-20T17:24:09.195Z,101581.78
2022-08-20T17:27:04.671Z,101582.63
2022-08-20T17:29:47.040Z,101585.56
2022-08-20T17:32:20.723Z,101587.63
2022-08-20T17:34:48.717Z,101594.16
2022-08-20T17:37:23.114Z,101594.84
2022-08-20T17:39:53.124Z,101597.38
2022-08-20T17:42:21.250Z,101589.34
2022-08-20T17:44:51.989Z,101583.84
2022-08-20T17:47:25.192Z,101598.44
2022-08-20T17:50:02.691Z,101594.84
2022-08-20T17:52:39.739Z,101599.28
2022-08-20T17:55:07.100Z,101596.69
2022-08-20T17:57:37.956Z,101592.09
2022-08-20T18:00:08.567Z,101595.84
2022-08-20T18:02:36.986Z,101604.09
2022-08-20T18:05:06.518Z,101595.84
2022-08-20T18:07:38.640Z,101607.03
2022-08-20T18:10:16.320Z,101608.72
2022-08-20T18:12:57.920Z,101608.91
2022-08-20T18:15:30.928Z,101618.00
2022-08-20T18:18:21.755Z,101619.91
2022-08-20T18:20:59.664Z,101616.31
2022-08-20T18:23:41.307Z,101620.91
2022-08-20T18:26:13.211Z,101620.91
2022-08-20T18:28:46.787Z,101626.41
2022-08-20T18:31:33.695Z,101628.28
2022-08-20T18:34:10.376Z,101628.47
2022-08-20T18:36:37.070Z,101625.53
2022-08-20T18:39:05.711Z,101626.59
2022-08-20T18:41:36.579Z,101631.88
2022-08-20T18:44:05.410Z,101630.03
2022-08-20T18:46:32.200Z,101624.53
2022-08-20T18:49:00.372Z,101624.69
2022-08-20T18:51:35.056Z,101626.75
2022-08-20T18:54:01.609Z,101625.88
2022-08-20T18:56:32.992Z,101637.56
2022-08-20T18:59:01.801Z,101632.25
2022-08-20T19:01:28.200Z,101632.94
2022-08-20T19:03:56.120Z,101632.25
2022-08-20T19:06:30.882Z,101629.66
2022-08-20T19:09:00.355Z,101636.00
2022-08-20T19:11:41.891Z,101634.28
2022-08-20T19:14:08.315Z,101632.59
2022-08-20T19:16:40.280Z,101632.59
2022-08-20T19:19:14.563Z,101628.97
2022-08-20T19:21:42.654Z,101627.94
2022-08-20T19:24:11.582Z,101637.19
2022-08-20T19:26:42.988Z,101646.31
2022-08-20T19:29:10.928Z,101639.78
2022-08-20T19:31:37.651Z,101638.94
2022-08-20T19:34:20.233Z,101641.47
2022-08-20T19:37:02.581Z,101641.69
2022-08-20T19:39:46.246Z,101633.44
2022-08-20T19:42:22.647Z,101636.34
2022-08-20T19:44:55.089Z,101630.84
2022-08-20T19:47:31.423Z,101639.09
2022-08-20T19:50:06.838Z,101640.81
2022-08-20T19:52:33.239Z,101640.81
2022-08-20T20:14:54.122Z,101644.94
2022-08-20T20:17:23.557Z,101642.19
2022-08-20T20:19:53.369Z,101651.47
2022-08-20T20:22:25.374Z,101639.63
2022-08-20T20:25:07.455Z,101646.81
2022-08-20T20:27:34.598Z,101645.97
2022-08-20T20:30:06.445Z,101638.94
2022-08-20T20:32:33.947Z,101647.19
2022-08-20T20:35:03.038Z,101637.94
2022-08-20T20:37:41.611Z,101637.06
2022-08-20T20:40:23.103Z,101640.84
2022-08-20T20:42:57.391Z,101628.81
2022-08-20T20:45:28.998Z,101637.06
2022-08-20T20:47:55.600Z,101640.84
2022-08-20T20:50:29.758Z,101634.66
2022-08-20T20:52:56.599Z,101635.34
2022-08-20T20:55:28.122Z,101622.47
2022-08-20T20:57:54.583Z,101624.03
2022-08-20T21:00:23.717Z,101624.03
2022-08-20T21:02:50.334Z,101625.72
2022-08-20T21:05:18.219Z,101624.03
2022-08-20T21:07:50.563Z,101624.03
2022-08-20T21:10:18.401Z,101628.66
2022-08-20T21:12:48.001Z,101626.78
2022-08-20T21:15:16.984Z,101628.88
2022-08-20T21:17:43.490Z,101619.78
2022-08-20T21:20:10.274Z,101618.63
2022-08-20T21:22:36.688Z,101624.78
2022-08-20T21:25:03.888Z,101621.38
2022-08-20T21:27:30.655Z,101624.13
2022-08-20T21:29:57.072Z,101626.03
2022-08-20T21:32:23.476Z,101630.63
2022-08-20T21:34:50.363Z,101632.00
2022-08-20T21:37:17.092Z,101633.00
2022-08-20T21:39:43.563Z,101629.25
2022-08-20T21:42:22.932Z,101623.78
2022-08-20T21:44:56.023Z,101619.63
2022-08-20T21:47:22.746Z,101622.72
2022-08-20T21:49:49.106Z,101619.50
2022-08-20T21:52:15.486Z,101621.72
2022-08-20T21:54:41.847Z,101615.41
2022-08-20T21:57:13.145Z,101619.84
2022-08-20T21:59:41.263Z,101612.13
2022-08-20T22:02:08.149Z,101621.38
2022-08-20T22:04:35.676Z,101622.41
2022-08-20T22:07:03.457Z,101621.72
2022-08-20T22:09:31.478Z,101623.78
2022-08-20T22:12:00.759Z,101621.03
2022-08-20T22:14:27.494Z,101615.56
2022-08-20T22:16:53.859Z,101612.16
2022-08-20T22:19:20.247Z,101613.00
2022-08-20T22:21:46.686Z,101609.41
2022-08-20T22:24:13.472Z,101601.84
2022-08-20T22:26:40.525Z,101600.13
2022-08-20T22:29:07.632Z,101608.19
2022-08-20T22:31:35.246Z,101613.00
2022-08-20T22:34:01.638Z,101614.91
2022-08-20T22:36:28.230Z,101610.25
2022-08-20T22:38:54.994Z,101608.38
2022-08-20T22:41:22.267Z,101604.78
2022-08-20T22:43:56.575Z,101605.97
2022-08-20T22:46:26.452Z,101600.50
2022-08-20T22:48:53.622Z,101601.34
2022-08-20T22:51:21.808Z,101603.41
2022-08-20T22:53:49.586Z,101601.69
2022-08-20T22:56:19.801Z,101607.19
2022-08-20T22:58:48.064Z,101595.34
2022-08-20T23:01:17.174Z,101598.94
2022-08-20T23:03:43.544Z,101596.56
2022-08-20T23:06:10.467Z,101603.09
2022-08-20T23:08:37.973Z,101599.50
2022-08-20T23:11:04.471Z,101588.53
2022-08-20T23:13:30.833Z,101594.16
2022-08-20T23:15:57.265Z,101584.25
2022-08-20T23:18:23.795Z,101588.69
2022-08-20T23:20:52.075Z,101582.19
2022-08-20T23:23:18.974Z,101579.59
2022-08-20T23:25:45.340Z,101585.09
2022-08-20T23:28:11.699Z,101584.25
2022-08-20T23:30:38.123Z,101576.19
2022-08-20T23:33:04.567Z,101585.44
2022-08-20T23:35:32.030Z,101574.81
2022-08-20T23:37:59.565Z,101572.78
2022-08-20T23:40:28.211Z,101568.13
2022-08-20T23:42:55.128Z,101581.69
2022-08-20T23:45:21.749Z,101568.97
2022-08-20T23:47:48.241Z,101567.28
2022-08-20T23:50:15.651Z,101563.50
2022-08-20T23:52:42.256Z,101572.78
2022-08-20T23:55:09.000Z,101563.69
2022-08-20T23:57:35.535Z,101571.91
